createdAt,value
2022-09-10T00:01:59.253Z,18.70
2022-09-10T00:04:28.039Z,18.80
2022-09-10T00:06:57.056Z,18.90
2022-09-10T00:09:24.278Z,18.90
2022-09-10T00:11:51.290Z,18.80
2022-09-10T00:14:21.700Z,18.70
2022-09-10T00:16:49.273Z,18.70
2022-09-10T00:19:16.816Z,18.90
2022-09-10T00:21:44.632Z,18.80
2022-09-10T00:24:13.493Z,18.80
2022-09-10T00:26:41.638Z,18.90
2022-09-10T00:29:10.601Z,18.80
2022-09-10T00:31:38.310Z,18.90
2022-09-10T00:34:06.123Z,18.90
2022-09-10T00:36:36.817Z,18.90
2022-09-10T00:39:07.324Z,18.90
2022-09-10T00:41:38.079Z,19.00
2022-09-10T00:44:07.751Z,18.90
2022-09-10T00:46:41.644Z,18.90
2022-09-10T00:49:15.090Z,18.90
2022-09-10T00:51:43.645Z,18.90
2022-09-10T00:54:11.319Z,18.90
2022-09-10T00:56:40.106Z,18.70
2022-09-10T00:59:09.985Z,18.70
2022-09-10T01:01:38.827Z,18.70
2022-09-10T01:04:07.744Z,18.90
2022-09-10T01:06:36.156Z,18.90
2022-09-10T01:09:04.143Z,19.00
2022-09-10T01:11:45.623Z,18.80
2022-09-10T01:14:36.269Z,18.80
2022-09-10T01:17:11.474Z,18.70
2022-09-10T01:20:21.095Z,18.80
2022-09-10T01:23:15.718Z,18.90
2022-09-10T01:25:56.249Z,18.80
2022-09-10T01:28:30.178Z,18.90
2022-09-10T01:31:04.578Z,18.70
2022-09-10T01:33:37.414Z,18.70
2022-09-10T01:36:10.093Z,18.70
2022-09-10T01:38:39.137Z,18.80
2022-09-10T01:41:08.360Z,18.70
2022-09-10T01:43:41.938Z,18.90
2022-09-10T01:46:29.928Z,18.70
2022-09-10T01:49:22.069Z,18.70
2022-09-10T01:52:10.534Z,18.70
2022-09-10T01:54:50.128Z,18.70
2022-09-10T01:57:29.256Z,18.70
2022-09-10T02:00:09.788Z,18.60
2022-09-10T02:02:48.364Z,18.70
2022-09-10T02:05:18.212Z,18.70
2022-09-10T02:07:56.942Z,18.70
2022-09-10T02:10:24.476Z,18.60
2022-09-10T02:12:51.735Z,18.60
2022-09-10T02:15:38.173Z,18.70
2022-09-10T02:18:19.806Z,18.70
2022-09-10T02:20:49.515Z,18.70
2022-09-10T02:23:20.232Z,18.70
2022-09-10T02:25:49.222Z,18.80
2022-09-10T02:28:17.119Z,18.90
2022-09-10T02:30:48.260Z,18.50
2022-09-10T02:33:16.486Z,18.80
2022-09-10T02:35:43.883Z,18.80
2022-09-10T02:38:11.720Z,18.80
2022-09-10T02:40:39.294Z,18.90
2022-09-10T02:43:07.931Z,18.90
2022-09-10T02:45:36.807Z,18.90
2022-09-10T02:48:06.605Z,18.80
2022-09-10T02:50:34.336Z,18.70
2022-09-10T02:53:02.704Z,18.80
2022-09-10T02:55:31.405Z,18.80
2022-09-10T02:57:58.603Z,18.80
2022-09-10T03:00:26.199Z,18.60
2022-09-10T03:03:00.941Z,18.70
2022-09-10T03:05:31.119Z,18.80
2022-09-10T03:07:58.251Z,18.90
2022-09-10T03:10:25.413Z,18.80
2022-09-10T03:12:53.788Z,18.80
2022-09-10T03:15:20.989Z,18.70
2022-09-10T03:17:48.047Z,18.80
2022-09-10T03:20:15.267Z,19.00
2022-09-10T03:22:44.061Z,18.90
2022-09-10T03:25:15.071Z,18.90
2022-09-10T03:27:42.140Z,18.80
2022-09-10T03:30:10.496Z,18.90
2022-09-10T03:32:38.162Z,18.80
2022-09-10T03:35:07.952Z,18.80
2022-09-10T03:37:35.093Z,18.90
2022-09-10T03:40:05.969Z,19.00
2022-09-10T03:42:33.509Z,19.10
2022-09-10T03:45:00.718Z,19.00
2022-09-10T03:47:28.173Z,18.90
2022-09-10T03:49:56.172Z,19.10
2022-09-10T03:52:23.502Z,19.10
2022-09-10T03:54:51.391Z,19.00
2022-09-10T03:57:20.113Z,18.90
2022-09-10T03:59:47.280Z,19.00
2022-09-10T04:02:14.986Z,19.00
2022-09-10T04:04:42.867Z,19.10
2022-09-10T04:07:10.922Z,19.20
2022-09-10T04:09:38.035Z,19.10
2022-09-10T04:12:05.579Z,19.10
2022-09-10T04:14:36.154Z,18.90
2022-09-10T04:17:03.797Z,18.90
2022-09-10T04:19:31.805Z,18.90
2022-09-10T04:21:59.015Z,18.90
2022-09-10T04:24:26.116Z,18.80
2022-09-10T04:26:53.466Z,18.80
2022-09-10T04:29:20.852Z,18.90
2022-09-10T04:31:50.761Z,19.10
2022-09-10T04:34:19.456Z,19.20
2022-09-10T04:36:46.611Z,19.00
2022-09-10T04:39:14.945Z,19.10
2022-09-10T04:41:43.141Z,19.20
2022-09-10T04:44:10.856Z,19.10
2022-09-10T04:46:37.968Z,19.00
2022-09-10T04:49:11.250Z,18.90
2022-09-10T04:51:38.453Z,19.00
2022-09-10T04:54:05.636Z,19.00
2022-09-10T04:56:36.584Z,19.20
2022-09-10T04:59:04.997Z,18.90
2022-09-10T05:01:35.577Z,18.80
2022-09-10T05:04:03.694Z,18.80
2022-09-10T05:06:32.580Z,18.70
2022-09-10T05:08:59.638Z,18.70
2022-09-10T05:11:28.285Z,18.70
2022-09-10T05:13:55.372Z,18.90
2022-09-10T05:16:25.888Z,18.90
2022-09-10T05:18:54.887Z,18.90
2022-09-10T05:21:22.668Z,19.00
2022-09-10T05:23:53.952Z,18.90
2022-09-10T05:26:21.154Z,19.10
2022-09-10T05:28:48.625Z,19.10
2022-09-10T05:31:17.368Z,19.10
2022-09-10T05:33:46.274Z,19.10
2022-09-10T05:36:14.890Z,19.10
2022-09-10T05:38:45.649Z,19.00
2022-09-10T05:41:14.646Z,19.10
2022-09-10T05:43:47.251Z,19.30
2022-09-10T05:46:14.663Z,19.10
2022-09-10T05:48:46.102Z,19.00
2022-09-10T05:51:14.212Z,19.10
2022-09-10T05:53:42.323Z,18.90
2022-09-10T05:56:11.154Z,18.80
2022-09-10T05:58:41.228Z,18.70
2022-09-10T06:01:09.449Z,18.80
2022-09-10T06:03:37.933Z,18.90
2022-09-10T06:06:06.106Z,19.00
2022-09-10T06:08:35.716Z,19.10
2022-09-10T06:11:11.915Z,19.20
2022-09-10T06:13:49.731Z,19.10
2022-09-10T06:16:18.212Z,19.20
2022-09-10T06:18:45.829Z,19.30
2022-09-10T06:21:18.231Z,19.50
2022-09-10T06:23:53.065Z,19.70
2022-09-10T06:26:21.093Z,19.80
2022-09-10T06:28:51.657Z,19.80
2022-09-10T06:31:20.144Z,19.60
2022-09-10T06:33:50.206Z,19.70
2022-09-10T06:36:23.057Z,19.70
2022-09-10T06:38:51.622Z,19.70
2022-09-10T06:41:22.299Z,19.90
2022-09-10T06:44:00.073Z,19.80
2022-09-10T06:47:28.239Z,19.90
2022-09-10T06:49:25.604Z,19.90
2022-09-10T06:51:53.430Z,19.80
2022-09-10T06:54:20.613Z,19.70
2022-09-10T06:56:48.994Z,19.60
2022-09-10T06:59:18.418Z,19.60
2022-09-10T07:01:48.503Z,19.80
2022-09-10T07:04:17.949Z,20.20
2022-09-10T07:06:46.048Z,20.30
2022-09-10T07:09:17.057Z,20.60
2022-09-10T07:11:52.791Z,20.80
2022-09-10T07:14:21.542Z,21.10
2022-09-10T07:16:51.441Z,21.30
2022-09-10T07:19:20.865Z,21.20
2022-09-10T07:21:48.537Z,21.30
2022-09-10T07:24:16.735Z,21.40
2022-09-10T07:26:56.982Z,21.40
2022-09-10T07:29:31.219Z,21.40
2022-09-10T07:31:58.966Z,21.50
2022-09-10T07:34:27.760Z,21.60
2022-09-10T07:36:56.637Z,21.60
2022-09-10T07:39:25.846Z,21.80
2022-09-10T07:41:53.976Z,22.00
2022-09-10T07:44:27.721Z,22.00
2022-09-10T07:46:58.319Z,22.00
2022-09-10T07:49:27.823Z,22.10
2022-09-10T07:51:59.667Z,22.20
2022-09-10T07:54:31.082Z,22.20
2022-09-10T07:56:58.405Z,21.90
2022-09-10T07:59:28.241Z,22.10
2022-09-10T08:02:00.907Z,22.10
2022-09-10T08:04:35.932Z,22.40
2022-09-10T08:07:06.003Z,22.50
2022-09-10T08:09:35.591Z,22.60
2022-09-10T08:12:04.455Z,22.60
2022-09-10T08:14:33.131Z,22.70
2022-09-10T08:17:01.814Z,22.90
2022-09-10T08:19:29.567Z,22.80
2022-09-10T08:21:57.000Z,23.00
2022-09-10T08:24:31.351Z,23.40
2022-09-10T08:26:58.486Z,23.60
2022-09-10T08:29:26.682Z,24.10
2022-09-10T08:31:55.360Z,24.50
2022-09-10T08:34:27.548Z,24.70
2022-09-10T08:37:03.429Z,24.80
2022-09-10T08:39:32.856Z,24.90
2022-09-10T08:42:05.920Z,24.90
2022-09-10T08:44:41.818Z,24.80
2022-09-10T08:47:25.143Z,24.70
2022-09-10T08:50:00.491Z,24.40
2022-09-10T08:52:34.099Z,24.40
2022-09-10T08:55:10.763Z,24.50
2022-09-10T08:57:45.218Z,24.90
2022-09-10T09:00:16.463Z,25.30
2022-09-10T09:02:55.830Z,25.70
2022-09-10T09:05:25.896Z,26.00
2022-09-10T09:07:56.239Z,26.40
2022-09-10T09:10:36.401Z,26.20
2022-09-10T09:13:38.747Z,26.00
2022-09-10T09:16:20.669Z,25.30
2022-09-10T09:19:07.351Z,24.70
2022-09-10T09:21:43.921Z,24.50
2022-09-10T09:24:22.614Z,24.00
2022-09-10T09:26:57.446Z,23.70
2022-09-10T09:29:30.260Z,23.80
2022-09-10T09:32:03.351Z,24.00
2022-09-10T09:34:36.468Z,24.20
2022-09-10T09:37:15.820Z,24.70
2022-09-10T09:39:53.682Z,24.60
2022-09-10T09:42:29.125Z,25.60
2022-09-10T09:45:03.388Z,26.50
2022-09-10T09:47:31.268Z,27.50
2022-09-10T09:50:00.414Z,27.50
2022-09-10T09:52:31.248Z,28.00
2022-09-10T09:55:14.323Z,27.30
2022-09-10T09:57:42.820Z,28.10
2022-09-10T10:00:33.264Z,30.30
2022-09-10T10:03:06.145Z,31.40
2022-09-10T10:05:36.104Z,32.10
2022-09-10T10:08:03.431Z,32.30
2022-09-10T10:10:30.538Z,31.50
2022-09-10T10:12:57.706Z,32.80
2022-09-10T10:15:36.802Z,33.80
2022-09-10T10:18:28.896Z,32.30
2022-09-10T10:21:13.832Z,31.90
2022-09-10T10:23:41.209Z,32.30
2022-09-10T10:26:26.186Z,31.70
2022-09-10T10:28:58.587Z,30.00
2022-09-10T10:31:34.996Z,29.30
2022-09-10T10:34:15.697Z,27.90
2022-09-10T10:36:55.468Z,27.30
2022-09-10T10:39:30.068Z,26.00
2022-09-10T10:42:06.074Z,25.00
2022-09-10T10:44:55.282Z,23.90
2022-09-10T10:47:40.839Z,23.70
2022-09-10T10:50:21.638Z,23.60
2022-09-10T10:53:11.751Z,23.70
2022-09-10T10:55:42.066Z,24.10
2022-09-10T10:58:34.859Z,24.60
2022-09-10T11:01:07.488Z,25.10
2022-09-10T11:03:42.864Z,26.30
2022-09-10T11:06:15.862Z,27.00
2022-09-10T11:08:50.748Z,27.90
2022-09-10T11:11:22.107Z,28.50
2022-09-10T11:13:55.456Z,28.80
2022-09-10T11:16:28.734Z,28.90
2022-09-10T11:19:01.539Z,28.90
2022-09-10T11:21:34.670Z,28.50
2022-09-10T11:24:11.952Z,28.10
2022-09-10T11:26:44.350Z,28.00
2022-09-10T11:29:20.749Z,27.50
2022-09-10T11:31:53.850Z,27.30
2022-09-10T11:34:28.500Z,26.90
2022-09-10T11:37:03.525Z,25.80
2022-09-10T11:39:35.199Z,25.80
2022-09-10T11:42:13.822Z,26.20
2022-09-10T11:44:50.779Z,26.90
2022-09-10T11:47:22.890Z,27.00
2022-09-10T11:49:55.207Z,26.50
2022-09-10T11:52:25.999Z,26.30
2022-09-10T11:54:56.193Z,26.60
2022-09-10T11:57:32.653Z,26.10
2022-09-10T12:00:16.200Z,26.20
2022-09-10T12:03:10.514Z,26.20
2022-09-10T12:05:56.525Z,26.80
2022-09-10T12:08:36.282Z,28.10
2022-09-10T12:11:15.962Z,28.40
2022-09-10T12:13:45.663Z,28.90
2022-09-10T12:16:21.025Z,29.00
2022-09-10T12:18:51.320Z,29.00
2022-09-10T12:21:27.877Z,28.90
2022-09-10T12:23:55.956Z,28.70
2022-09-10T12:26:24.699Z,28.30
2022-09-10T12:29:04.849Z,28.10
2022-09-10T12:32:16.022Z,28.10
2022-09-10T12:34:43.100Z,28.20
2022-09-10T12:37:24.807Z,28.30
2022-09-10T12:40:29.479Z,28.10
2022-09-10T12:43:37.687Z,27.90
2022-09-10T12:46:18.094Z,27.60
2022-09-10T12:48:47.123Z,27.60
2022-09-10T12:51:30.877Z,27.60
2022-09-10T12:54:13.126Z,27.40
2022-09-10T12:56:50.269Z,27.80
2022-09-10T12:59:36.439Z,27.50
2022-09-10T13:02:20.421Z,26.10
2022-09-10T13:04:55.428Z,26.40
2022-09-10T13:07:26.197Z,27.10
2022-09-10T13:10:00.928Z,28.20
2022-09-10T13:12:29.314Z,28.50
2022-09-10T13:14:58.069Z,28.50
2022-09-10T13:17:40.816Z,28.10
2022-09-10T13:20:28.063Z,27.80
2022-09-10T13:22:57.764Z,26.30
2022-09-10T13:25:39.739Z,24.00
2022-09-10T13:28:44.540Z,23.10
2022-09-10T13:31:18.465Z,22.60
2022-09-10T13:34:03.989Z,22.50
2022-09-10T13:36:37.448Z,22.40
2022-09-10T13:39:20.670Z,22.40
2022-09-10T13:42:06.324Z,22.40
2022-09-10T13:44:52.179Z,22.40
2022-09-10T13:47:27.162Z,22.40
2022-09-10T13:49:58.020Z,22.50
2022-09-10T13:52:29.769Z,22.80
2022-09-10T13:54:59.904Z,23.10
2022-09-10T13:57:30.153Z,23.30
2022-09-10T14:00:04.860Z,23.70
2022-09-10T14:02:45.232Z,24.00
2022-09-10T14:05:34.083Z,24.40
2022-09-10T14:08:06.576Z,25.00
2022-09-10T14:10:49.470Z,25.60
2022-09-10T14:13:22.457Z,26.10
2022-09-10T14:15:52.495Z,26.60
2022-09-10T14:18:23.140Z,26.80
2022-09-10T14:20:50.467Z,26.60
2022-09-10T14:23:17.797Z,26.10
2022-09-10T14:25:46.305Z,26.00
2022-09-10T14:28:25.249Z,25.70
2022-09-10T14:31:08.453Z,25.70
2022-09-10T14:33:39.582Z,26.10
2022-09-10T14:36:16.273Z,26.00
2022-09-10T14:38:45.355Z,25.90
2022-09-10T14:41:21.887Z,26.00
2022-09-10T14:43:50.720Z,25.90
2022-09-10T14:46:48.117Z,25.90
2022-09-10T14:49:18.076Z,26.00
2022-09-10T14:51:45.383Z,26.10
2022-09-10T14:54:12.944Z,26.10
2022-09-10T14:56:42.666Z,26.30
2022-09-10T14:59:15.661Z,26.40
2022-09-10T15:01:44.475Z,26.40
2022-09-10T15:04:14.417Z,26.70
2022-09-10T15:06:46.331Z,26.70
2022-09-10T15:09:14.828Z,26.70
2022-09-10T15:11:50.485Z,26.60
2022-09-10T15:14:18.317Z,26.50
2022-09-10T15:16:45.379Z,25.80
2022-09-10T15:19:12.535Z,25.40
2022-09-10T15:21:39.895Z,25.10
2022-09-10T15:24:12.185Z,24.90
2022-09-10T15:26:39.319Z,24.50
2022-09-10T15:29:06.334Z,24.40
2022-09-10T15:31:33.506Z,24.20
2022-09-10T15:34:00.581Z,24.00
2022-09-10T15:36:28.296Z,24.10
2022-09-10T15:38:55.778Z,24.00
2022-09-10T15:41:24.239Z,23.90
2022-09-10T15:43:51.446Z,24.00
2022-09-10T15:46:20.009Z,24.10
2022-09-10T15:48:47.529Z,24.10
2022-09-10T15:51:17.087Z,24.10
2022-09-10T15:53:45.960Z,24.40
2022-09-10T15:56:13.624Z,24.50
2022-09-10T15:58:47.455Z,24.60
2022-09-10T16:01:16.219Z,24.70
2022-09-10T16:03:48.183Z,24.70
2022-09-10T16:06:16.038Z,24.80
2022-09-10T16:08:48.538Z,25.00
2022-09-10T16:11:15.643Z,25.20
2022-09-10T16:13:45.467Z,25.20
2022-09-10T16:16:16.600Z,25.30
2022-09-10T16:18:43.857Z,25.30
2022-09-10T16:21:13.595Z,25.40
2022-09-10T16:23:42.895Z,25.30
2022-09-10T16:26:15.699Z,25.30
2022-09-10T16:28:48.825Z,25.20
2022-09-10T16:31:18.380Z,25.10
2022-09-10T16:33:45.911Z,25.10
2022-09-10T16:36:15.091Z,25.10
2022-09-10T16:38:46.450Z,25.20
2022-09-10T16:41:15.207Z,25.20
2022-09-10T16:43:44.180Z,25.20
2022-09-10T16:46:12.748Z,25.20
2022-09-10T16:48:45.023Z,25.20
2022-09-10T16:51:13.711Z,24.80
2022-09-10T16:53:42.264Z,23.90
2022-09-10T16:56:12.038Z,23.20
2022-09-10T16:58:41.251Z,22.70
2022-09-10T17:01:10.163Z,22.30
2022-09-10T17:03:40.634Z,22.00
2022-09-10T17:06:13.791Z,22.00
2022-09-10T17:08:41.000Z,21.90
2022-09-10T17:11:08.789Z,21.80
2022-09-10T17:13:36.113Z,22.00
2022-09-10T17:16:18.332Z,22.20
2022-09-10T17:18:45.679Z,22.50
2022-09-10T17:21:14.297Z,22.70
2022-09-10T17:23:41.424Z,23.00
2022-09-10T17:26:09.574Z,23.30
2022-09-10T17:28:37.142Z,23.40
2022-09-10T17:31:05.017Z,23.60
2022-09-10T17:33:34.099Z,23.90
2022-09-10T17:36:03.755Z,23.90
2022-09-10T17:38:33.759Z,24.00
2022-09-10T17:41:02.721Z,24.10
2022-09-10T17:43:33.928Z,24.10
2022-09-10T17:46:03.662Z,24.20
2022-09-10T17:48:31.442Z,24.10
2022-09-10T17:51:00.132Z,23.90
2022-09-10T17:53:27.455Z,24.00
2022-09-10T17:55:54.800Z,23.60
2022-09-10T17:58:22.369Z,23.30
2022-09-10T18:00:49.505Z,23.30
2022-09-10T18:03:17.692Z,23.30
2022-09-10T18:05:45.817Z,23.10
2022-09-10T18:08:14.276Z,23.10
2022-09-10T18:10:41.384Z,22.80
2022-09-10T18:13:09.954Z,22.50
2022-09-10T18:15:45.392Z,22.50
2022-09-10T18:18:12.780Z,22.20
2022-09-10T18:20:39.822Z,22.20
2022-09-10T18:23:07.070Z,21.80
2022-09-10T18:25:37.109Z,21.70
2022-09-10T18:28:04.151Z,21.60
2022-09-10T18:30:31.545Z,21.60
2022-09-10T18:32:58.747Z,21.60
2022-09-10T18:35:26.108Z,21.60
2022-09-10T18:37:53.163Z,21.50
2022-09-10T18:40:20.241Z,21.60
2022-09-10T18:42:48.726Z,21.60
2022-09-10T18:45:16.172Z,21.60
2022-09-10T18:47:45.370Z,21.50
2022-09-10T18:50:13.165Z,21.50
2022-09-10T18:52:41.509Z,21.50
2022-09-10T18:55:09.179Z,21.50
2022-09-10T18:57:36.550Z,21.60
2022-09-10T19:00:06.114Z,21.60
2022-09-10T19:02:33.230Z,21.60
2022-09-10T19:05:17.559Z,21.50
2022-09-10T19:07:46.628Z,21.50
2022-09-10T19:10:13.778Z,21.40
2022-09-10T19:12:40.863Z,21.50
2022-09-10T19:15:10.970Z,21.50
2022-09-10T19:17:38.028Z,21.50
2022-09-10T19:20:06.196Z,21.40
2022-09-10T19:22:33.795Z,21.20
2022-09-10T19:25:01.442Z,21.10
2022-09-10T19:27:29.413Z,21.20
2022-09-10T19:29:56.566Z,21.20
2022-09-10T19:32:25.540Z,20.90
2022-09-10T19:34:52.618Z,20.90
2022-09-10T19:37:19.816Z,20.80
2022-09-10T19:39:47.521Z,20.80
2022-09-10T19:42:14.865Z,20.70
2022-09-10T19:44:42.112Z,20.60
2022-09-10T19:47:09.152Z,20.60
2022-09-10T19:49:38.074Z,20.50
2022-09-10T19:52:05.201Z,20.40
2022-09-10T19:54:32.244Z,20.40
2022-09-10T19:56:59.227Z,20.40
2022-09-10T19:59:26.275Z,20.40
2022-09-10T20:01:53.414Z,20.40
2022-09-10T20:04:20.612Z,20.40
2022-09-10T20:06:50.303Z,20.20
2022-09-10T20:09:17.476Z,20.20
2022-09-10T20:11:45.033Z,20.20
2022-09-10T20:14:13.577Z,20.20
2022-09-10T20:16:42.952Z,20.20
2022-09-10T20:19:12.371Z,20.20
2022-09-10T20:21:39.712Z,20.10
2022-09-10T20:24:08.678Z,20.10
2022-09-10T20:26:48.853Z,20.10
2022-09-10T20:29:17.960Z,20.10
2022-09-10T20:31:47.023Z,20.00
2022-09-10T20:34:17.132Z,20.00
2022-09-10T20:36:44.305Z,20.00
2022-09-10T20:39:15.113Z,19.90
2022-09-10T20:41:42.400Z,19.80
2022-09-10T20:44:13.044Z,19.90
2022-09-10T20:46:41.535Z,20.00
2022-09-10T20:49:10.846Z,19.90
2022-09-10T20:51:40.393Z,19.80
2022-09-10T20:54:10.429Z,19.90
2022-09-10T20:56:39.065Z,19.80
2022-09-10T20:59:06.416Z,19.80
2022-09-10T21:01:33.928Z,19.70
2022-09-10T21:04:03.000Z,19.70
2022-09-10T21:06:32.087Z,19.70
2022-09-10T21:09:00.111Z,19.70
2022-09-10T21:11:29.692Z,19.80
2022-09-10T21:13:59.422Z,19.70
2022-09-10T21:16:28.280Z,19.70
2022-09-10T21:18:57.569Z,19.50
2022-09-10T21:21:27.076Z,19.50
2022-09-10T21:23:55.859Z,19.50
2022-09-10T21:26:25.184Z,19.40
2022-09-10T21:28:54.000Z,19.50
2022-09-10T21:31:23.000Z,19.50
2022-09-10T21:33:50.298Z,19.50
2022-09-10T21:36:19.031Z,19.50
2022-09-10T21:38:49.756Z,19.50
2022-09-10T21:41:19.165Z,19.50
2022-09-10T21:43:47.447Z,19.40
2022-09-10T21:46:15.292Z,19.50
2022-09-10T21:48:44.413Z,19.50
2022-09-10T21:51:13.763Z,19.30
2022-09-10T21:53:41.922Z,19.30
2022-09-10T21:56:11.269Z,19.30
2022-09-10T21:58:38.802Z,19.30
2022-09-10T22:01:11.313Z,19.30
2022-09-10T22:03:39.272Z,19.20
2022-09-10T22:06:11.283Z,19.20
2022-09-10T22:08:40.312Z,19.10
2022-09-10T22:11:09.452Z,19.10
2022-09-10T22:13:37.925Z,19.00
2022-09-10T22:16:05.895Z,19.00
2022-09-10T22:18:34.248Z,19.00
2022-09-10T22:21:02.108Z,19.00
2022-09-10T22:23:32.269Z,18.90
2022-09-10T22:26:04.157Z,18.90
2022-09-10T22:28:34.879Z,18.90
2022-09-10T22:31:10.525Z,18.80
2022-09-10T22:33:38.577Z,18.90
2022-09-10T22:36:13.903Z,18.90
2022-09-10T22:38:43.034Z,18.90
2022-09-10T22:41:10.607Z,18.90
2022-09-10T22:43:38.644Z,18.90
2022-09-10T22:46:07.297Z,18.90
2022-09-10T22:48:35.415Z,18.90
2022-09-10T22:51:02.836Z,18.80
2022-09-10T22:53:30.205Z,18.80
2022-09-10T22:55:58.727Z,18.80
2022-09-10T22:58:26.541Z,18.80
2022-09-10T23:00:54.319Z,18.70
2022-09-10T23:03:21.993Z,18.70
2022-09-10T23:05:49.432Z,18.70
2022-09-10T23:08:17.057Z,18.70
2022-09-10T23:10:44.158Z,18.70
2022-09-10T23:13:12.605Z,18.60
2022-09-10T23:15:40.107Z,18.60
2022-09-10T23:18:07.327Z,18.60
2022-09-10T23:20:34.450Z,18.70
2022-09-10T23:23:01.472Z,18.70
2022-09-10T23:25:28.548Z,18.70
2022-09-10T23:27:55.863Z,18.80
2022-09-10T23:30:24.330Z,18.70
2022-09-10T23:32:51.613Z,18.70
2022-09-10T23:35:18.846Z,18.70
2022-09-10T23:37:46.263Z,18.80
2022-09-10T23:40:14.292Z,18.70
2022-09-10T23:42:41.391Z,18.70
2022-09-10T23:45:09.459Z,18.70
2022-09-10T23:47:37.861Z,18.70
2022-09-10T23:50:07.753Z,18.70
2022-09-10T23:52:34.819Z,18.60
2022-09-10T23:55:02.039Z,18.70
2022-09-10T23:57:29.080Z,18.60
2022-09-10T23:59:56.476Z,18.70
